Time;durP1;ratioP1;P1;durP2;ratioP2;P2;SDS_P1;SDS_P2;PMS_P1;PMS_P2;Temp;Humidity;BMP_temperature;BMP_pressure;BME280_temperature;BME280_humidity;BME280_pressure;Samples;Min_cycle;Max_cycle;Signal;HPM_P1;HPM_P2
2023/08/24 00:01:58;;;;;;;7.03;5.57;;;;;;;16.66;100.00;101626.91;5091036;28;20107;-54
2023/08/24 00:04:24;;;;;;;8.15;6.03;;;;;;;17.23;100.00;101712.94;5091610;28;20036;-50
2023/08/24 00:06:49;;;;;;;7.78;6.15;;;;;;;17.23;100.00;101697.84;5091735;28;20139;-49
2023/08/24 00:09:15;;;;;;;9.40;6.55;;;;;;;17.17;100.00;101684.81;5091980;28;20079;-55
2023/08/24 00:11:40;;;;;;;10.35;6.18;;;;;;;17.15;100.00;101678.72;5091876;28;20056;-53
2023/08/24 00:14:06;;;;;;;7.47;6.20;;;;;;;17.32;100.00;101710.72;5092392;28;20032;-55
2023/08/24 00:16:32;;;;;;;7.38;6.63;;;;;;;17.09;100.00;101656.84;5091862;28;20032;-48
2023/08/24 00:18:57;;;;;;;9.07;7.15;;;;;;;17.02;100.00;101634.09;5090591;28;20202;-57
2023/08/24 00:21:23;;;;;;;7.38;6.35;;;;;;;16.92;100.00;101611.56;5091328;28;20047;-51
2023/08/24 00:23:50;;;;;;;9.27;6.78;;;;;;;17.29;100.00;101678.94;5091714;28;20033;-49
2023/08/24 00:26:18;;;;;;;9.60;6.68;;;;;;;17.07;100.00;101645.41;5090725;28;20039;-53
2023/08/24 00:28:44;;;;;;;7.45;5.88;;;;;;;16.91;100.00;101623.13;5091624;28;20497;-52
2023/08/24 00:31:09;;;;;;;7.30;6.50;;;;;;;17.27;100.00;101675.50;5091481;28;20036;-53
2023/08/24 00:33:34;;;;;;;8.35;6.20;;;;;;;16.93;100.00;101618.59;5090038;28;20032;-55
2023/08/24 00:36:00;;;;;;;8.35;6.32;;;;;;;16.84;100.00;101611.91;5091624;28;20115;-49
2023/08/24 00:38:26;;;;;;;9.13;6.78;;;;;;;16.86;100.00;101604.72;5090422;28;20035;-52
2023/08/24 00:40:53;;;;;;;8.10;6.43;;;;;;;17.06;100.00;101639.22;5091548;28;20410;-50
2023/08/24 00:43:22;;;;;;;7.43;6.53;;;;;;;17.28;100.00;101673.66;5091347;28;20524;-54
2023/08/24 00:45:47;;;;;;;8.05;6.22;;;;;;;16.91;100.00;101596.53;5089805;28;20042;-49
2023/08/24 00:48:12;;;;;;;6.82;6.10;;;;;;;17.35;100.00;101678.66;5091430;28;20028;-49
2023/08/24 00:50:38;;;;;;;7.78;6.25;;;;;;;17.31;100.00;101671.72;5072244;28;20098;-53
2023/08/24 00:53:03;;;;;;;10.93;7.13;;;;;;;16.88;100.00;101603.72;5090499;28;20047;-50
2023/08/24 00:55:28;;;;;;;8.30;6.20;;;;;;;17.31;100.00;101678.84;5091658;28;20044;-52
2023/08/24 00:57:54;;;;;;;10.07;6.80;;;;;;;17.29;100.00;101672.75;5090339;28;20410;-53
2023/08/24 01:00:20;;;;;;;7.25;6.55;;;;;;;17.45;100.00;101689.72;5089781;28;20061;-49
2023/08/24 01:02:46;;;;;;;9.13;6.93;;;;;;;17.39;100.00;101680.25;5091046;28;20116;-54
2023/08/24 01:05:12;;;;;;;7.63;6.60;;;;;;;17.47;100.00;101685.19;5091222;28;20483;-50
2023/08/24 01:07:39;;;;;;;7.10;5.90;;;;;;;17.44;100.00;101677.34;5094132;28;20048;-49
2023/08/24 01:10:06;;;;;;;7.80;5.82;;;;;;;17.52;100.00;101688.47;5095316;28;20115;-48
2023/08/24 01:12:31;;;;;;;7.10;5.80;;;;;;;17.60;100.00;101693.50;5094025;28;20032;-51
2023/08/24 01:15:03;;;;;;;9.02;6.10;;;;;;;17.60;100.00;101673.03;5095040;28;20038;-47
2023/08/24 01:17:30;;;;;;;7.97;5.97;;;;;;;17.24;100.00;101592.28;5095216;28;20024;-46
2023/08/24 01:19:56;;;;;;;8.45;6.43;;;;;;;17.68;100.00;101646.91;5095066;28;20036;-47
2023/08/24 01:22:27;;;;;;;9.68;6.78;;;;;;;17.72;100.00;101655.59;5076226;28;20028;-52
2023/08/24 01:25:17;;;;;;;8.90;6.82;;;;;;;17.73;100.00;101666.19;5074437;28;20032;-51
2023/08/24 01:27:42;;;;;;;9.52;7.55;;;;;;;17.74;100.00;101675.91;5072939;28;20432;-48
2023/08/24 01:30:09;;;;;;;10.45;7.15;;;;;;;17.28;100.00;101588.50;5074347;28;20078;-48
2023/08/24 01:32:35;;;;;;;9.25;7.20;;;;;;;17.74;100.00;101672.38;5073298;28;20391;-49
2023/08/24 01:35:04;;;;;;;9.10;7.47;;;;;;;17.71;100.00;101659.22;5073393;28;20045;-51
2023/08/24 01:37:29;;;;;;;9.23;7.57;;;;;;;17.66;100.00;101646.13;5074464;28;20037;-52
2023/08/24 01:40:14;;;;;;;13.25;7.82;;;;;;;17.63;100.00;101643.59;5080049;28;20039;-50
2023/08/24 01:42:52;;;;;;;9.50;8.65;;;;;;;17.63;100.00;101653.41;5094247;28;20135;-52
2023/08/24 01:45:18;;;;;;;10.57;8.05;;;;;;;17.15;100.00;101553.69;5094636;28;20032;-49
2023/08/24 01:47:45;;;;;;;10.55;8.23;;;;;;;17.55;100.00;101624.47;5093291;28;20059;-47
2023/08/24 01:50:10;;;;;;;12.50;7.78;;;;;;;17.58;100.00;101623.47;5092938;28;20028;-50
2023/08/24 01:52:36;;;;;;;11.23;7.70;;;;;;;17.01;100.00;101534.00;5092934;28;20034;-51
2023/08/24 01:55:01;;;;;;;10.55;7.47;;;;;;;17.52;100.00;101621.06;5093107;28;20150;-48
2023/08/24 01:57:27;;;;;;;11.77;7.95;;;;;;;17.43;100.00;101604.63;5092928;28;20435;-50
2023/08/24 01:59:52;;;;;;;10.45;7.32;;;;;;;17.04;100.00;101542.69;5093005;28;20043;-47
2023/08/24 02:02:17;;;;;;;9.30;7.30;;;;;;;17.41;100.00;101609.16;5093966;28;20047;-49
2023/08/24 02:04:43;;;;;;;8.77;7.57;;;;;;;16.98;100.00;101528.81;5093951;28;20028;-50
2023/08/24 02:07:08;;;;;;;11.73;8.13;;;;;;;17.38;100.00;101590.69;5093873;28;20055;-50
2023/08/24 02:09:33;;;;;;;11.43;8.40;;;;;;;17.34;100.00;101591.75;5094217;28;20032;-51
2023/08/24 02:11:59;;;;;;;11.15;7.50;;;;;;;16.89;100.00;101511.50;5093670;28;20032;-54
2023/08/24 02:14:24;;;;;;;10.02;7.47;;;;;;;16.85;100.00;101500.16;5093172;28;20044;-48
2023/08/24 02:16:49;;;;;;;10.95;8.25;;;;;;;17.16;100.00;101558.03;5093555;28;20043;-49
2023/08/24 02:19:15;;;;;;;12.38;8.68;;;;;;;17.25;100.00;101570.91;5093192;28;20044;-50
2023/08/24 02:21:40;;;;;;;9.23;8.32;;;;;;;16.81;100.00;101501.22;5093718;28;20036;-47
2023/08/24 02:24:06;;;;;;;13.02;8.80;;;;;;;16.73;100.00;101482.13;5093374;28;20036;-52
2023/08/24 02:26:32;;;;;;;12.88;8.25;;;;;;;16.72;100.00;101483.03;5093725;28;20032;-49
2023/08/24 02:28:57;;;;;;;13.10;9.30;;;;;;;17.12;100.00;101553.81;5093583;28;20090;-55
2023/08/24 02:31:23;;;;;;;10.10;8.80;;;;;;;16.65;100.00;101486.94;5092643;28;20060;-48
2023/08/24 02:33:48;;;;;;;9.60;8.68;;;;;;;16.52;100.00;101482.25;5093515;28;20403;-48
2023/08/24 02:36:14;;;;;;;11.23;8.85;;;;;;;16.93;100.00;101562.75;5093493;28;20046;-48
2023/08/24 02:38:39;;;;;;;13.38;9.52;;;;;;;16.58;100.00;101506.75;5093471;28;20039;-50
2023/08/24 02:41:06;;;;;;;11.27;9.02;;;;;;;17.00;100.00;101575.69;5092008;28;20028;-53
2023/08/24 02:43:32;;;;;;;10.93;8.82;;;;;;;16.99;100.00;101571.28;5092244;28;20036;-50
2023/08/24 02:46:05;;;;;;;10.93;9.27;;;;;;;16.98;100.00;101579.34;5091932;28;20130;-50
2023/08/24 02:48:31;;;;;;;10.35;9.13;;;;;;;17.00;100.00;101569.50;5092110;28;20032;-49
2023/08/24 02:51:00;;;;;;;11.48;9.43;;;;;;;16.82;100.00;101526.88;5093002;28;20032;-51
2023/08/24 02:53:26;;;;;;;10.50;9.25;;;;;;;17.03;100.00;101556.91;5093153;28;20047;-55
2023/08/24 02:55:53;;;;;;;12.30;9.85;;;;;;;17.05;100.00;101560.38;5092093;28;20047;-51
2023/08/24 02:58:19;;;;;;;19.50;10.20;;;;;;;16.95;100.00;101542.25;5091467;28;20032;-52
2023/08/24 03:00:44;;;;;;;10.32;9.38;;;;;;;16.51;100.00;101478.72;5092875;28;20476;-54
2023/08/24 03:03:09;;;;;;;11.88;9.88;;;;;;;16.97;100.00;101546.56;5092927;28;20116;-54
2023/08/24 03:05:35;;;;;;;12.98;10.20;;;;;;;16.93;100.00;101542.31;5091821;28;20043;-52
2023/08/24 03:08:00;;;;;;;14.52;10.15;;;;;;;16.45;100.00;101464.88;5092461;28;20056;-49
2023/08/24 03:10:26;;;;;;;14.95;10.50;;;;;;;16.41;100.00;101457.94;5091436;28;20368;-50
2023/08/24 03:12:52;;;;;;;12.13;10.82;;;;;;;16.79;100.00;101535.00;5092820;28;20121;-49
2023/08/24 03:15:17;;;;;;;14.07;10.55;;;;;;;16.73;100.00;101521.13;5091555;28;20039;-54
2023/08/24 03:17:43;;;;;;;12.82;10.93;;;;;;;16.66;100.00;101525.91;5092674;28;20368;-50
2023/08/24 03:20:08;;;;;;;17.13;12.15;;;;;;;16.60;100.00;101499.59;5091471;28;20024;-51
2023/08/24 03:22:34;;;;;;;12.80;10.52;;;;;;;16.20;100.00;101441.22;5092648;28;20268;-47
2023/08/24 03:24:59;;;;;;;14.80;10.77;;;;;;;16.41;100.00;101476.56;5091241;28;20034;-49
2023/08/24 03:27:25;;;;;;;15.43;11.60;;;;;;;16.14;100.00;101437.03;5091092;28;20032;-50
2023/08/24 03:29:53;;;;;;;12.65;11.38;;;;;;;16.53;100.00;101507.88;5090872;28;20089;-57
2023/08/24 03:32:18;;;;;;;12.95;11.00;;;;;;;16.54;100.00;101515.84;5092358;28;20028;-50
2023/08/24 03:34:43;;;;;;;16.13;12.45;;;;;;;16.14;100.00;101450.31;5092361;28;20115;-49
2023/08/24 03:37:09;;;;;;;16.30;11.85;;;;;;;16.50;100.00;101522.19;5091263;28;20062;-52
2023/08/24 03:39:36;;;;;;;13.90;11.45;;;;;;;16.34;100.00;101497.25;5091940;28;20036;-49
2023/08/24 03:42:02;;;;;;;13.65;11.90;;;;;;;16.42;100.00;101529.63;5091934;28;20123;-51
2023/08/24 03:44:27;;;;;;;16.63;11.88;;;;;;;16.40;100.00;101526.19;5090694;28;20107;-53
2023/08/24 03:46:52;;;;;;;14.00;12.40;;;;;;;16.38;100.00;101512.09;5091878;28;20055;-52
2023/08/24 03:49:18;;;;;;;13.43;11.98;;;;;;;15.89;100.00;101444.41;5092035;28;20040;-52
2023/08/24 03:51:43;;;;;;;15.48;12.07;;;;;;;16.29;100.00;101518.69;5092382;28;20487;-49
2023/08/24 03:54:08;;;;;;;14.15;12.65;;;;;;;16.28;100.00;101508.16;5090783;28;20035;-53
2023/08/24 03:56:34;;;;;;;14.80;11.88;;;;;;;16.21;100.00;101499.59;5092228;28;20182;-47
2023/08/24 03:58:59;;;;;;;14.13;12.63;;;;;;;15.97;100.00;101450.22;5090720;28;20028;-50
2023/08/24 04:01:25;;;;;;;15.32;12.10;;;;;;;15.95;100.00;101445.94;5091883;28;20040;-50
2023/08/24 04:03:50;;;;;;;18.00;12.55;;;;;;;16.34;100.00;101522.00;5091990;28;20136;-46
2023/08/24 04:06:18;;;;;;;16.77;13.52;;;;;;;16.35;100.00;101520.22;5091842;28;20040;-49
2023/08/24 04:08:43;;;;;;;14.82;13.05;;;;;;;16.36;100.00;101521.06;5090490;28;20051;-46
2023/08/24 04:11:08;;;;;;;16.23;12.32;;;;;;;16.34;100.00;101529.97;5091620;28;20040;-52
2023/08/24 04:13:33;;;;;;;14.20;11.65;;;;;;;16.24;100.00;101510.09;5092140;28;20407;-48
2023/08/24 04:15:59;;;;;;;14.75;13.23;;;;;;;16.03;100.00;101462.38;5091470;28;20067;-53
2023/08/24 04:18:24;;;;;;;14.55;12.85;;;;;;;16.40;100.00;101526.19;5091784;28;20060;-49
2023/08/24 04:20:52;;;;;;;14.75;13.00;;;;;;;16.44;100.00;101525.09;5091636;28;20089;-48
2023/08/24 04:23:17;;;;;;;15.90;13.00;;;;;;;16.40;100.00;101510.25;5091978;28;20035;-48
2023/08/24 04:25:43;;;;;;;17.50;12.50;;;;;;;16.48;100.00;101515.22;5090445;28;20375;-48
2023/08/24 04:28:08;;;;;;;18.25;13.90;;;;;;;16.40;100.00;101494.31;5091890;28;20064;-49
2023/08/24 04:30:34;;;;;;;16.90;13.85;;;;;;;16.49;100.00;101507.16;5091629;28;20463;-48
2023/08/24 04:32:59;;;;;;;16.27;12.65;;;;;;;16.08;100.00;101433.84;5091205;28;20101;-49
2023/08/24 04:35:25;;;;;;;17.40;13.15;;;;;;;16.44;100.00;101509.16;5091608;28;20039;-49
2023/08/24 04:37:51;;;;;;;14.82;12.35;;;;;;;16.09;100.00;101447.03;5089903;28;20032;-49
2023/08/24 04:40:16;;;;;;;14.38;12.88;;;;;;;16.02;100.00;101436.75;5091256;28;20028;-51
2023/08/24 04:42:41;;;;;;;16.50;13.68;;;;;;;16.38;100.00;101512.09;5094326;28;20047;-47
2023/08/24 04:45:07;;;;;;;17.40;13.90;;;;;;;15.56;100.00;101366.28;5097157;28;20127;-50
2023/08/24 04:47:32;;;;;;;17.05;14.43;;;;;;;16.37;100.00;101505.09;5095377;28;20035;-54
2023/08/24 04:49:58;;;;;;;16.13;14.15;;;;;;;16.24;100.00;101475.56;5095667;28;20173;-50
2023/08/24 04:52:24;;;;;;;15.40;13.02;;;;;;;16.37;100.00;101491.81;5095827;28;20039;-54
2023/08/24 04:54:49;;;;;;;15.38;13.77;;;;;;;16.38;100.00;101479.34;5077596;28;20032;-55
2023/08/24 04:57:15;;;;;;;21.42;15.20;;;;;;;16.40;100.00;101485.47;5093855;28;20039;-48
2023/08/24 04:59:40;;;;;;;18.67;14.38;;;;;;;16.04;100.00;101416.31;5092741;28;20051;-51
2023/08/24 05:02:05;;;;;;;17.45;13.95;;;;;;;16.46;100.00;101483.38;5095236;28;20386;-47
2023/08/24 05:04:31;;;;;;;17.05;14.43;;;;;;;16.15;100.00;101412.22;5095638;28;20074;-48
2023/08/24 05:06:56;;;;;;;16.17;13.68;;;;;;;16.48;100.00;101464.72;5095324;28;20113;-54
2023/08/24 05:09:22;;;;;;;17.10;13.25;;;;;;;16.08;100.00;101394.00;5093805;28;20063;-48
2023/08/24 05:11:48;;;;;;;19.27;14.20;;;;;;;16.32;100.00;101432.69;5095301;28;20032;-52
2023/08/24 05:14:13;;;;;;;18.33;13.82;;;;;;;16.43;100.00;101442.81;5095125;28;20110;-49
2023/08/24 05:16:39;;;;;;;17.85;14.23;;;;;;;16.51;100.00;101443.31;5094198;28;20044;-49
2023/08/24 05:19:05;;;;;;;15.98;14.38;;;;;;;16.52;100.00;101439.75;5095514;28;20111;-48
2023/08/24 05:21:30;;;;;;;15.48;13.68;;;;;;;16.43;100.00;101416.25;5093497;28;20028;-49
2023/08/24 05:23:56;;;;;;;20.08;14.88;;;;;;;16.57;100.00;101448.38;5076996;28;20047;-49
2023/08/24 05:26:24;;;;;;;18.42;14.68;;;;;;;16.59;100.00;101460.66;5095210;28;20038;-53
2023/08/24 05:28:50;;;;;;;15.48;13.70;;;;;;;16.59;100.00;101455.34;5095742;28;20047;-52
2023/08/24 05:31:17;;;;;;;15.82;14.20;;;;;;;16.63;100.00;101453.41;5093573;28;20219;-50
2023/08/24 05:33:42;;;;;;;16.67;14.15;;;;;;;16.69;100.00;101445.13;5094350;28;20024;-48
2023/08/24 05:36:07;;;;;;;15.90;14.07;;;;;;;16.74;100.00;101449.28;5095328;28;20032;-48
2023/08/24 05:38:32;;;;;;;16.63;14.57;;;;;;;16.40;100.00;101373.88;5093406;28;20039;-52
2023/08/24 05:40:59;;;;;;;16.60;14.18;;;;;;;16.40;100.00;101364.13;5093807;28;20036;-55
2023/08/24 05:43:24;;;;;;;18.70;14.80;;;;;;;16.47;100.00;101360.22;5094990;28;20032;-49
2023/08/24 05:45:49;;;;;;;20.00;15.35;;;;;;;16.66;100.00;101376.19;5094210;28;20116;-50
2023/08/24 05:48:15;;;;;;;22.42;14.18;;;;;;;16.53;100.00;101345.78;5094660;28;20097;-52
2023/08/24 05:50:46;;;;;;;14.35;12.93;;;;;;;16.66;100.00;101349.59;5093642;28;20044;-52
2023/08/24 05:53:12;;;;;;;19.98;15.00;;;;;;;17.16;100.00;101425.03;5094802;28;20039;-51
2023/08/24 05:55:38;;;;;;;16.40;14.68;;;;;;;16.90;100.00;101358.16;5094677;28;20036;-50
2023/08/24 05:58:03;;;;;;;16.30;14.63;;;;;;;17.30;100.00;101419.03;5094751;28;20111;-52
2023/08/24 06:00:29;;;;;;;20.70;13.30;;;;;;;17.17;100.00;101380.66;5093352;28;20039;-50
2023/08/24 06:02:55;;;;;;;16.20;14.57;;;;;;;17.46;100.00;101419.94;5094291;28;20039;-51
2023/08/24 06:05:20;;;;;;;17.70;15.00;;;;;;;17.56;100.00;101402.59;5094464;28;20051;-53
2023/08/24 06:07:45;;;;;;;19.70;13.25;;;;;;;17.30;100.00;101329.44;5092824;28;20047;-51
2023/08/24 06:10:11;;;;;;;22.52;15.27;;;;;;;17.28;100.00;101317.97;5094608;28;20046;-50
2023/08/24 06:12:37;;;;;;;15.85;13.73;;;;;;;17.80;100.00;101393.34;5094242;28;20038;-52
2023/08/24 06:15:04;;;;;;;16.38;14.88;;;;;;;17.91;100.00;101392.75;5094081;28;20042;-49
2023/08/24 06:17:30;;;;;;;17.08;14.63;;;;;;;17.80;100.00;101353.41;5094840;28;20036;-52
2023/08/24 06:19:55;;;;;;;21.02;15.18;;;;;;;17.68;100.00;101313.25;5094771;28;20111;-51
2023/08/24 06:22:20;;;;;;;16.00;14.25;;;;;;;18.08;100.00;101359.84;5093435;28;20055;-54
2023/08/24 06:24:45;;;;;;;15.93;14.38;;;;;;;18.22;100.00;101375.94;5094530;28;20046;-56
2023/08/24 06:27:11;;;;;;;18.98;14.70;;;;;;;17.95;100.00;101301.91;5093340;28;20032;-51
2023/08/24 06:29:36;;;;;;;17.08;14.75;;;;;;;18.44;100.00;101369.34;5094101;28;20039;-55
2023/08/24 06:32:02;;;;;;;15.52;13.90;;;;;;;18.13;100.00;101288.50;5093312;28;20062;-51
2023/08/24 06:34:27;;;;;;;19.00;14.63;;;;;;;18.27;100.00;101291.28;5094439;28;20387;-55
2023/08/24 06:36:53;;;;;;;16.10;14.52;;;;;;;18.72;100.00;101362.44;5094303;28;20072;-49
2023/08/24 06:39:19;;;;;;;18.52;13.82;;;;;;;18.84;100.00;101356.41;5091560;28;20085;-48
2023/08/24 06:41:44;;;;;;;16.08;13.88;;;;;;;18.93;100.00;101367.41;5090517;28;20036;-52
2023/08/24 06:44:09;;;;;;;15.50;13.77;;;;;;;19.07;100.00;101383.44;5092224;28;20452;-52
2023/08/24 06:46:35;;;;;;;15.02;13.50;;;;;;;19.09;100.00;101362.88;5091872;28;20039;-49
2023/08/24 06:49:00;;;;;;;15.48;13.50;;;;;;;19.28;100.00;101381.31;5092439;28;20039;-55
2023/08/24 06:51:27;;;;;;;16.67;14.00;;;;;;;19.40;100.00;101395.78;5092622;28;20165;-52
2023/08/24 06:53:53;;;;;;;17.38;14.75;;;;;;;19.50;100.00;101375.56;5092952;28;20028;-51
2023/08/24 06:56:18;;;;;;;17.45;14.38;;;;;;;19.06;100.00;101290.13;5092772;28;20111;-52
2023/08/24 06:58:45;;;;;;;16.95;14.93;;;;;;;19.23;100.00;101298.00;5093596;28;20111;-55
2023/08/24 07:01:10;;;;;;;19.95;15.27;;;;;;;19.57;100.00;101342.22;5092723;28;20068;-51
2023/08/24 07:03:36;;;;;;;17.63;13.65;;;;;;;19.48;100.00;101300.03;5092230;28;20131;-53
2023/08/24 07:06:02;;;;;;;15.13;13.57;;;;;;;20.01;100.00;101369.69;5092596;28;20047;-55
2023/08/24 07:08:27;;;;;;;17.63;14.02;;;;;;;20.14;100.00;101365.25;5093447;28;20090;-51
2023/08/24 07:10:52;;;;;;;18.38;14.10;;;;;;;20.31;100.00;101363.38;5093552;28;20052;-54
2023/08/24 07:13:18;;;;;;;16.23;13.88;;;;;;;20.39;100.00;101364.59;5093659;28;20123;-52
2023/08/24 07:15:45;;;;;;;21.05;14.07;;;;;;;20.56;100.00;101353.66;5093414;28;20035;-51
2023/08/24 07:18:10;;;;;;;16.77;14.25;;;;;;;20.85;100.00;101374.94;5093743;28;20058;-57
2023/08/24 07:20:37;;;;;;;17.88;13.95;;;;;;;20.70;100.00;101320.63;5093516;28;20475;-57
2023/08/24 07:23:02;;;;;;;18.40;15.50;;;;;;;21.18;100.00;101365.53;5092213;28;20062;-50
2023/08/24 07:25:28;;;;;;;18.85;14.32;;;;;;;21.44;100.00;101357.53;5092119;28;20036;-51
2023/08/24 07:27:57;;;;;;;19.23;13.85;;;;;;;21.91;100.00;101356.91;5093324;28;20032;-52
2023/08/24 07:30:23;;;;;;;14.18;12.63;;;;;;;22.43;100.00;101358.38;5093331;28;20044;-55
2023/08/24 07:32:48;;;;;;;14.48;12.60;;;;;;;23.04;100.00;101358.31;5093623;28;20040;-54
2023/08/24 07:35:14;;;;;;;14.35;12.02;;;;;;;23.22;100.00;101370.34;5092147;28;20536;-54
2023/08/24 07:37:40;;;;;;;14.90;12.65;;;;;;;23.22;100.00;101390.00;5093318;28;20048;-53
2023/08/24 07:40:08;;;;;;;15.70;13.25;;;;;;;23.01;100.00;101388.94;5092025;28;20032;-51
2023/08/24 07:42:54;;;;;;;22.80;13.63;;;;;;;22.78;100.00;101379.94;5092886;28;20036;-57
2023/08/24 07:45:20;;;;;;;16.50;13.00;;;;;;;22.67;100.00;101370.97;5091862;28;20479;-50
2023/08/24 07:47:45;;;;;;;17.35;12.80;;;;;;;22.26;100.00;101313.16;5093242;28;20042;-53
2023/08/24 07:50:11;;;;;;;15.60;13.43;;;;;;;22.38;100.00;101309.59;5091818;28;20027;-54
2023/08/24 07:52:37;;;;;;;13.60;12.18;;;;;;;22.71;100.00;101334.88;5091759;28;20115;-57
2023/08/24 07:55:04;;;;;;;19.58;12.77;;;;;;;22.73;100.00;101322.22;5090428;28;20038;-54
2023/08/24 07:57:31;;;;;;;16.17;11.90;;;;;;;22.66;100.00;101304.84;5093018;28;20074;-57
2023/08/24 07:59:56;;;;;;;15.05;12.52;;;;;;;22.83;100.00;101329.44;5092900;28;20364;-49
2023/08/24 08:02:21;;;;;;;14.82;13.07;;;;;;;23.01;100.00;101377.34;5091527;28;20046;-52
2023/08/24 08:04:47;;;;;;;20.48;12.35;;;;;;;22.98;100.00;101356.97;5092805;28;20035;-50
2023/08/24 08:07:12;;;;;;;15.60;11.65;;;;;;;23.00;100.00;101356.88;5092578;28;20050;-52
2023/08/24 08:09:37;;;;;;;12.75;11.43;;;;;;;23.06;100.00;101343.81;5092667;28;20052;-53
2023/08/24 08:12:03;;;;;;;16.70;11.45;;;;;;;23.13;100.00;101347.75;5090179;28;20032;-53
2023/08/24 08:14:29;;;;;;;15.23;11.43;;;;;;;23.21;100.00;101349.81;5092379;28;20028;-56
2023/08/24 08:16:54;;;;;;;15.80;11.73;;;;;;;23.05;100.00;101307.19;5091591;28;20543;-56
2023/08/24 08:19:21;;;;;;;18.15;12.27;;;;;;;23.24;100.00;101336.16;5092242;28;20111;-51
2023/08/24 08:21:47;;;;;;;13.25;11.93;;;;;;;23.30;100.00;101327.63;5074421;28;20475;-52
2023/08/24 08:24:12;;;;;;;14.07;10.20;;;;;;;23.41;100.00;101341.13;5092217;28;20039;-52
2023/08/24 08:26:38;;;;;;;13.68;11.73;;;;;;;23.42;100.00;101334.78;5092522;28;20036;-56
2023/08/24 08:29:03;;;;;;;15.77;12.00;;;;;;;23.39;100.00;101322.44;5092134;28;20048;-56
2023/08/24 08:31:28;;;;;;;14.10;11.38;;;;;;;23.42;100.00;101311.47;5091395;28;20399;-53
2023/08/24 08:33:54;;;;;;;15.98;10.95;;;;;;;23.20;100.00;101262.19;5091060;28;20483;-53
2023/08/24 08:36:19;;;;;;;13.02;11.57;;;;;;;23.32;100.00;101262.06;5092259;28;20036;-54
2023/08/24 08:38:44;;;;;;;15.32;11.68;;;;;;;23.55;100.00;101279.09;5092174;28;20032;-54
2023/08/24 08:41:10;;;;;;;14.32;11.20;;;;;;;23.50;100.00;101275.91;5091952;28;20040;-57
2023/08/24 08:43:38;;;;;;;16.10;13.48;;;;;;;23.64;100.00;101307.09;5091163;28;20446;-57
2023/08/24 08:46:03;;;;;;;12.98;11.57;;;;;;;23.63;100.00;101298.16;5091099;28;20070;-53
2023/08/24 08:48:31;;;;;;;14.35;12.68;;;;;;;23.24;100.00;101253.75;5092114;28;20052;-50
2023/08/24 08:50:57;;;;;;;15.93;12.70;;;;;;;23.28;100.00;101223.00;5090878;28;20036;-52
2023/08/24 08:53:23;;;;;;;17.30;12.38;;;;;;;23.67;100.00;101291.53;5091826;28;20507;-53
2023/08/24 08:55:51;;;;;;;13.27;11.85;;;;;;;23.72;100.00;101300.13;5091053;28;20040;-53
2023/08/24 08:58:16;;;;;;;17.45;13.23;;;;;;;23.85;100.00;101297.28;5092132;28;20048;-55
2023/08/24 09:00:42;;;;;;;13.75;10.90;;;;;;;23.59;100.00;101210.69;5092160;28;20094;-58
2023/08/24 09:03:08;;;;;;;13.60;12.20;;;;;;;23.80;100.00;101210.78;5089519;28;20096;-53
2023/08/24 09:05:35;;;;;;;17.85;12.95;;;;;;;24.23;100.00;101268.16;5091987;28;20402;-51
2023/08/24 09:08:02;;;;;;;16.13;12.90;;;;;;;24.38;100.00;101274.09;5090544;28;20028;-55
2023/08/24 09:10:28;;;;;;;14.13;12.40;;;;;;;24.31;100.00;101278.28;5091008;28;20398;-55
2023/08/24 09:12:53;;;;;;;14.77;12.38;;;;;;;24.24;100.00;101282.47;5092133;28;20036;-53
2023/08/24 09:15:26;;;;;;;14.85;11.98;;;;;;;24.18;100.00;101293.72;5090669;28;20503;-55
2023/08/24 09:17:54;;;;;;;16.35;12.60;;;;;;;23.97;100.00;101262.19;5091951;28;20032;-54
2023/08/24 09:20:20;;;;;;;14.77;12.38;;;;;;;23.91;100.00;101251.06;5090763;28;20506;-55
2023/08/24 09:22:45;;;;;;;14.18;11.07;;;;;;;23.94;100.00;101259.75;5090633;28;20044;-55
2023/08/24 09:25:11;;;;;;;17.13;12.80;;;;;;;24.31;100.00;101315.97;5090822;28;20098;-52
2023/08/24 09:27:36;;;;;;;13.70;12.30;;;;;;;24.10;100.00;101313.19;5092604;28;20028;-52
2023/08/24 09:30:02;;;;;;;14.40;12.07;;;;;;;24.02;100.00;101315.63;5095547;28;20450;-56
2023/08/24 09:32:28;;;;;;;13.95;11.45;;;;;;;23.91;100.00;101299.47;5094266;28;20081;-55
2023/08/24 09:34:54;;;;;;;14.57;12.60;;;;;;;23.47;100.00;101234.03;5095048;28;20032;-54
2023/08/24 09:37:20;;;;;;;13.35;12.00;;;;;;;23.21;100.00;101215.53;5095467;28;20059;-51
2023/08/24 09:39:45;;;;;;;21.10;12.93;;;;;;;23.14;100.00;101209.81;5095527;28;20024;-50
2023/08/24 09:42:12;;;;;;;14.48;12.98;;;;;;;23.16;100.00;101239.22;5093929;28;20172;-53
2023/08/24 09:44:37;;;;;;;16.92;13.27;;;;;;;22.96;100.00;101222.84;5095272;28;20483;-54
2023/08/24 09:47:09;;;;;;;15.18;13.27;;;;;;;22.80;100.00;101202.66;5095110;28;20088;-54
2023/08/24 09:49:35;;;;;;;14.98;12.70;;;;;;;23.09;100.00;101265.69;5095098;28;20036;-56
2023/08/24 09:52:00;;;;;;;19.33;13.88;;;;;;;22.69;100.00;101219.63;5075850;28;20066;-53
2023/08/24 09:54:30;;;;;;;14.88;13.05;;;;;;;22.63;100.00;101216.50;5093979;28;20040;-56
2023/08/24 09:56:58;;;;;;;19.08;13.60;;;;;;;22.62;100.00;101221.00;5095002;28;20031;-58
2023/08/24 09:59:24;;;;;;;15.07;13.48;;;;;;;22.52;100.00;101228.06;5093778;28;20047;-55
2023/08/24 10:01:51;;;;;;;16.95;13.60;;;;;;;22.74;100.00;101275.59;5094978;28;20391;-52
2023/08/24 10:04:29;;;;;;;23.15;14.30;;;;;;;22.55;100.00;101251.97;5076845;28;20058;-53
2023/08/24 10:07:15;;;;;;;17.83;14.13;;;;;;;22.46;100.00;101246.44;5094023;28;20131;-54
2023/08/24 10:09:54;;;;;;;16.52;14.77;;;;;;;22.38;100.00;101236.31;5093725;28;20040;-54
2023/08/24 10:12:24;;;;;;;15.45;13.65;;;;;;;22.70;100.00;101292.94;5094947;28;20115;-53
2023/08/24 10:14:54;;;;;;;17.83;14.27;;;;;;;22.39;100.00;101246.91;5094669;28;20032;-55
2023/08/24 10:17:21;;;;;;;16.95;14.95;;;;;;;22.68;100.00;101287.66;5093689;28;20032;-54
2023/08/24 10:19:46;;;;;;;17.25;15.00;;;;;;;22.68;100.00;101273.41;5076783;28;20036;-54
2023/08/24 10:22:12;;;;;;;19.90;15.52;;;;;;;22.34;100.00;101200.81;5093479;28;20035;-54
2023/08/24 10:24:37;;;;;;;20.27;15.43;;;;;;;22.73;100.00;101239.88;5092367;28;20066;-56
2023/08/24 10:27:03;;;;;;;19.35;15.65;;;;;;;22.60;100.00;101189.91;5093536;28;20391;-55
2023/08/24 10:29:29;;;;;;;21.02;14.70;;;;;;;22.73;100.00;101178.16;5093331;28;20035;-53
2023/08/24 10:31:55;;;;;;;20.42;14.20;;;;;;;22.93;100.00;101181.97;5094695;28;20089;-54
2023/08/24 10:34:21;;;;;;;19.52;15.88;;;;;;;23.50;100.00;101249.91;5093437;28;20044;-56
2023/08/24 10:36:49;;;;;;;16.63;14.70;;;;;;;23.70;100.00;101252.84;5094430;28;20437;-58
2023/08/24 10:39:15;;;;;;;16.90;14.65;;;;;;;23.90;100.00;101250.25;5093305;28;20032;-52
2023/08/24 10:41:51;;;;;;;17.83;15.75;;;;;;;24.16;100.00;101258.03;5092965;28;20039;-52
2023/08/24 10:44:35;;;;;;;16.83;15.20;;;;;;;24.51;100.00;101274.81;5093142;28;20070;-54
2023/08/24 10:47:07;;;;;;;19.10;14.85;;;;;;;24.70;100.00;101287.56;5094175;28;20483;-55
2023/08/24 10:49:33;;;;;;;16.88;13.73;;;;;;;24.73;100.00;101280.06;5092923;28;20440;-56
2023/08/24 10:52:16;;;;;;;17.48;14.57;;;;;;;24.30;100.00;101239.78;5094098;28;20116;-53
2023/08/24 10:54:48;;;;;;;16.15;14.35;;;;;;;24.05;100.00;101224.75;5089629;28;20036;-58
2023/08/24 10:57:38;;;;;;;15.55;13.88;;;;;;;24.08;100.00;101267.53;5092831;28;20035;-55
2023/08/24 11:00:13;;;;;;;18.53;13.27;;;;;;;23.81;100.00;101268.94;5092582;28;20032;-55
2023/08/24 11:02:43;;;;;;;16.02;13.18;;;;;;;23.60;100.00;101255.41;5092220;28;20047;-56